Temp: 6.0°C   Baro: 996.0mb
  Wind: 0.0mph   Dir: ESE (106°)
  Rain: 0.2mm (0.0mm/hr)
  Solar: 0W/m2  Hum: 93%
 
Bath Spa Weather Historical Data
Daily Summary for November 09, 2019 Units:  Both    English   Metric
Next Day »
Daily Weekly Monthly Yearly Custom
  High: Low: Average:
Temperature: 44.6 °F /  7.0 °C 29.7 °F /  -1.3 °C 37.8 °F /  3.2 °C
Dew Point: 43.2 °F /  6.2 °C 27.7 °F /  -2.4 °C 36 °F /  2.2 °C
Humidity: 95% 89% 93%
Wind Speed: 8.9mph /  14.3km/h - 1.3mph /  2.1km/h
Wind Gust: 11mph /  17.7km/h - -
Wind direction- - SSW
Pressure: 29.9 in /  1013.1 hPa 29.5 in /  999.9 hPa -
Precipitation: 0.3 in /  7.6 mm    
Historical Graphs
 
 
Tabular Data for November 09, 2019
Time Temperature Dew Point Pressure Wind direction Wind Speed Wind Gust Humidity Rainfall Rate (Hourly) solar
00:00 34.7 °F /  1.5 °C 31.8 °F /  -0.1 °C 29.9in /  1012.8hPa Calm   1mph /  1.6km/h 89% 0in /  0.0mm 0.00 W/m2
00:05 34.9 °F /  1.6 °C 32 °F /  0.0 °C 29.9in /  1012.8hPa Calm   1mph /  1.6km/h 89% 0in /  0.0mm 0.00 W/m2
00:10 34.7 °F /  1.5 °C 31.8 °F /  -0.1 °C 29.9in /  1013.1hPa NW 2mph /  3.2km/h 2mph /  3.2km/h 89% 0in /  0.0mm 0.00 W/m2
00:15 34.5 °F /  1.4 °C 31.6 °F /  -0.2 °C 29.9in /  1013.1hPa Calm   1mph /  1.6km/h 89% 0in /  0.0mm 0.00 W/m2
00:20 34.3 °F /  1.3 °C 31.5 °F /  -0.3 °C 29.9in /  1013.1hPa Calm     89% 0in /  0.0mm 0.00 W/m2
00:25 34.2 °F /  1.2 °C 31.3 °F /  -0.4 °C 29.9in /  1013.1hPa Calm     89% 0in /  0.0mm 0.00 W/m2
00:30 34.2 °F /  1.2 °C 31.3 °F /  -0.4 °C 29.9in /  1013.1hPa Calm   1mph /  1.6km/h 89% 0in /  0.0mm 0.00 W/m2
00:35 34 °F /  1.1 °C 31.1 °F /  -0.5 °C 29.9in /  1013.1hPa Calm     89% 0in /  0.0mm 0.00 W/m2
00:40 33.6 °F /  0.9 °C 30.7 °F /  -0.7 °C 29.9in /  1013.1hPa Calm     89% 0in /  0.0mm 0.00 W/m2
00:45 33.4 °F /  0.8 °C 30.6 °F /  -0.8 °C 29.9in /  1012.8hPa Calm     89% 0in /  0.0mm 0.00 W/m2
00:50 33.3 °F /  0.7 °C 30.4 °F /  -0.9 °C 29.9in /  1012.8hPa Calm     89% 0in /  0.0mm 0.00 W/m2
00:55 33.3 °F /  0.7 °C 30.4 °F /  -0.9 °C 29.9in /  1012.8hPa Calm     89% 0in /  0.0mm 0.00 W/m2
01:00 33.1 °F /  0.6 °C 30.2 °F /  -1.0 °C 29.9in /  1012.8hPa Calm     89% 0in /  0.0mm 0.00 W/m2
01:05 33.1 °F /  0.6 °C 30.4 °F /  -0.9 °C 29.9in /  1012.8hPa Calm     90% 0in /  0.0mm 0.00 W/m2
01:10 32.7 °F /  0.4 °C 30.2 °F /  -1.0 °C 29.9in /  1012.8hPa Calm     90% 0in /  0.0mm 0.00 W/m2
01:15 32.7 °F /  0.4 °C 30.2 °F /  -1.0 °C 29.9in /  1012.8hPa Calm   1mph /  1.6km/h 90% 0in /  0.0mm 0.00 W/m2
01:20 32.5 °F /  0.3 °C 30 °F /  -1.1 °C 29.9in /  1012.8hPa Calm     90% 0in /  0.0mm 0.00 W/m2
01:25 32.4 °F /  0.2 °C 29.8 °F /  -1.2 °C 29.9in /  1012.8hPa Calm   1mph /  1.6km/h 90% 0in /  0.0mm 0.00 W/m2
01:30 32.5 °F /  0.3 °C 30 °F /  -1.1 °C 29.9in /  1012.8hPa Calm   1mph /  1.6km/h 90% 0in /  0.0mm 0.00 W/m2
01:35 32.4 °F /  0.2 °C 29.8 °F /  -1.2 °C 29.9in /  1012.8hPa Calm     90% 0in /  0.0mm 0.00 W/m2
01:40 32.2 °F /  0.1 °C 29.7 °F /  -1.3 °C 29.9in /  1012.8hPa Calm     90% 0in /  0.0mm 0.00 W/m2
01:45 32.2 °F /  0.1 °C 29.7 °F /  -1.3 °C 29.9in /  1012.4hPa Calm     90% 0in /  0.0mm 0.00 W/m2
01:50 32.2 °F /  0.1 °C 29.7 °F /  -1.3 °C 29.9in /  1012.4hPa Calm     90% 0in /  0.0mm 0.00 W/m2
01:55 32 °F /  0.0 °C 29.7 °F /  -1.3 °C 29.9in /  1012.4hPa Calm     91% 0in /  0.0mm 0.00 W/m2
02:00 32 °F /  0.0 °C 29.7 °F /  -1.3 °C 29.9in /  1012.4hPa Calm     91% 0in /  0.0mm 0.00 W/m2
02:05 31.8 °F /  -0.1 °C 29.5 °F /  -1.4 °C 29.9in /  1012.1hPa Calm     91% 0in /  0.0mm 0.00 W/m2
02:10 31.6 °F /  -0.2 °C 29.3 °F /  -1.5 °C 29.9in /  1012.1hPa Calm     91% 0in /  0.0mm 0.00 W/m2
02:15 31.6 °F /  -0.2 °C 29.3 °F /  -1.5 °C 29.9in /  1012.1hPa Calm     91% 0in /  0.0mm 0.00 W/m2
02:20 31.5 °F /  -0.3 °C 29.1 °F /  -1.6 °C 29.9in /  1012.1hPa Calm     91% 0in /  0.0mm 0.00 W/m2
02:25 31.6 °F /  -0.2 °C 29.3 °F /  -1.5 °C 29.9in /  1011.7hPa Calm     91% 0in /  0.0mm 0.00 W/m2
02:30 31.5 °F /  -0.3 °C 29.1 °F /  -1.6 °C 29.9in /  1012.1hPa Calm     91% 0in /  0.0mm 0.00 W/m2
02:35 31.5 °F /  -0.3 °C 29.1 °F /  -1.6 °C 29.9in /  1011.7hPa Calm     91% 0in /  0.0mm 0.00 W/m2
02:40 31.5 °F /  -0.3 °C 29.1 °F /  -1.6 °C 29.9in /  1011.7hPa Calm     91% 0in /  0.0mm 0.00 W/m2
02:45 31.5 °F /  -0.3 °C 29.1 °F /  -1.6 °C 29.9in /  1011.7hPa Calm     91% 0in /  0.0mm 0.00 W/m2
02:50 31.5 °F /  -0.3 °C 29.1 °F /  -1.6 °C 29.9in /  1011.7hPa Calm     91% 0in /  0.0mm 0.00 W/m2
02:55 31.3 °F /  -0.4 °C 28.9 °F /  -1.7 °C 29.9in /  1011.7hPa Calm     91% 0in /  0.0mm 0.00 W/m2
03:00 31.5 °F /  -0.3 °C 29.1 °F /  -1.6 °C 29.9in /  1011.4hPa Calm     91% 0in /  0.0mm 0.00 W/m2
03:05 31.3 °F /  -0.4 °C 28.9 °F /  -1.7 °C 29.9in /  1011.4hPa Calm     91% 0in /  0.0mm 0.00 W/m2
03:10 31.1 °F /  -0.5 °C 28.8 °F /  -1.8 °C 29.9in /  1011.4hPa Calm     91% 0in /  0.0mm 0.00 W/m2
03:15 30.9 °F /  -0.6 °C 28.6 °F /  -1.9 °C 29.9in /  1011.4hPa Calm     91% 0in /  0.0mm 0.00 W/m2
03:20 30.9 °F /  -0.6 °C 28.6 °F /  -1.9 °C 29.9in /  1011.1hPa Calm     91% 0in /  0.0mm 0.00 W/m2
03:25 30.9 °F /  -0.6 °C 28.9 °F /  -1.7 °C 29.9in /  1011.1hPa Calm     92% 0in /  0.0mm 0.00 W/m2
03:30 31.1 °F /  -0.5 °C 28.8 °F /  -1.8 °C 29.9in /  1011.1hPa Calm     91% 0in /  0.0mm 0.00 W/m2
03:35 30.9 °F /  -0.6 °C 28.9 °F /  -1.7 °C 29.9in /  1011.1hPa Calm     92% 0in /  0.0mm 0.00 W/m2
03:40 30.7 °F /  -0.7 °C 28.8 °F /  -1.8 °C 29.9in /  1011.1hPa Calm     92% 0in /  0.0mm 0.00 W/m2
03:45 30.7 °F /  -0.7 °C 28.8 °F /  -1.8 °C 29.9in /  1011.1hPa Calm     92% 0in /  0.0mm 0.00 W/m2
03:50 30.9 °F /  -0.6 °C 28.9 °F /  -1.7 °C 29.9in /  1011.1hPa Calm     92% 0in /  0.0mm 0.00 W/m2
03:55 30.9 °F /  -0.6 °C 28.9 °F /  -1.7 °C 29.9in /  1011.1hPa Calm     92% 0in /  0.0mm 0.00 W/m2
04:00 30.7 °F /  -0.7 °C 28.8 °F /  -1.8 °C 29.8in /  1010.7hPa Calm     92% 0in /  0.0mm 0.00 W/m2
04:05 30.7 °F /  -0.7 °C 28.8 °F /  -1.8 °C 29.8in /  1010.7hPa Calm     92% 0in /  0.0mm 0.00 W/m2
04:10 30.6 °F /  -0.8 °C 28.6 °F /  -1.9 °C 29.8in /  1010.7hPa Calm     92% 0in /  0.0mm 0.00 W/m2
04:15 30.6 °F /  -0.8 °C 28.6 °F /  -1.9 °C 29.8in /  1010.7hPa Calm     92% 0in /  0.0mm 0.00 W/m2
04:20 30.6 °F /  -0.8 °C 28.6 °F /  -1.9 °C 29.8in /  1010.4hPa Calm     92% 0in /  0.0mm 0.00 W/m2
04:25 30.6 °F /  -0.8 °C 28.6 °F /  -1.9 °C 29.8in /  1010.7hPa Calm     92% 0in /  0.0mm 0.00 W/m2
04:30 30.7 °F /  -0.7 °C 28.8 °F /  -1.8 °C 29.8in /  1010.4hPa Calm     92% 0in /  0.0mm 0.00 W/m2
04:35 30.6 °F /  -0.8 °C 28.6 °F /  -1.9 °C 29.8in /  1010.4hPa Calm     92% 0in /  0.0mm 0.00 W/m2
04:40 30.4 °F /  -0.9 °C 28.4 °F /  -2.0 °C 29.8in /  1010.4hPa Calm     92% 0in /  0.0mm 0.00 W/m2
04:45 30.6 °F /  -0.8 °C 28.6 °F /  -1.9 °C 29.8in /  1010.0hPa Calm     92% 0in /  0.0mm 0.00 W/m2
04:50 30.4 °F /  -0.9 °C 28.4 °F /  -2.0 °C 29.8in /  1010.0hPa Calm     92% 0in /  0.0mm 0.00 W/m2
04:55 30.4 °F /  -0.9 °C 28.4 °F /  -2.0 °C 29.8in /  1010.0hPa Calm     92% 0in /  0.0mm 0.00 W/m2
05:00 30.4 °F /  -0.9 °C 28.4 °F /  -2.0 °C 29.8in /  1009.7hPa Calm     92% 0in /  0.0mm 0.00 W/m2
05:05 30.2 °F /  -1.0 °C 28.2 °F /  -2.1 °C 29.8in /  1009.7hPa Calm     92% 0in /  0.0mm 0.00 W/m2
05:10 30.2 °F /  -1.0 °C 28.2 °F /  -2.1 °C 29.8in /  1009.7hPa Calm     92% 0in /  0.0mm 0.00 W/m2
05:15 30 °F /  -1.1 °C 28 °F /  -2.2 °C 29.8in /  1009.4hPa Calm     92% 0in /  0.0mm 0.00 W/m2
05:20 30 °F /  -1.1 °C 28 °F /  -2.2 °C 29.8in /  1009.4hPa Calm   1mph /  1.6km/h 92% 0in /  0.0mm 0.00 W/m2
05:25 29.8 °F /  -1.2 °C 27.9 °F /  -2.3 °C 29.8in /  1009.4hPa Calm     92% 0in /  0.0mm 0.00 W/m2
05:30 29.8 °F /  -1.2 °C 27.9 °F /  -2.3 °C 29.8in /  1009.4hPa Calm     92% 0in /  0.0mm 0.00 W/m2
05:35 29.8 °F /  -1.2 °C 27.9 °F /  -2.3 °C 29.8in /  1009.0hPa Calm     92% 0in /  0.0mm 0.00 W/m2
05:40 29.8 °F /  -1.2 °C 28 °F /  -2.2 °C 29.8in /  1009.0hPa Calm     93% 0in /  0.0mm 0.00 W/m2
05:45 29.8 °F /  -1.2 °C 28 °F /  -2.2 °C 29.8in /  1009.0hPa Calm     93% 0in /  0.0mm 0.00 W/m2
05:50 30 °F /  -1.1 °C 28.2 °F /  -2.1 °C 29.8in /  1008.7hPa Calm     93% 0in /  0.0mm 0.00 W/m2
05:55 29.8 °F /  -1.2 °C 28 °F /  -2.2 °C 29.8in /  1009.0hPa Calm     93% 0in /  0.0mm 0.00 W/m2
06:00 29.7 °F /  -1.3 °C 27.7 °F /  -2.4 °C 29.8in /  1008.7hPa Calm     92% 0in /  0.0mm 0.00 W/m2
06:05 29.7 °F /  -1.3 °C 27.7 °F /  -2.4 °C 29.8in /  1008.7hPa Calm     92% 0in /  0.0mm 0.00 W/m2
06:10 29.7 °F /  -1.3 °C 27.9 °F /  -2.3 °C 29.8in /  1008.7hPa Calm     93% 0in /  0.0mm 0.00 W/m2
06:15 29.7 °F /  -1.3 °C 27.9 °F /  -2.3 °C 29.8in /  1008.7hPa Calm     93% 0in /  0.0mm 0.00 W/m2
06:20 29.7 °F /  -1.3 °C 27.9 °F /  -2.3 °C 29.8in /  1008.7hPa Calm     93% 0in /  0.0mm 0.00 W/m2
06:25 29.8 °F /  -1.2 °C 28 °F /  -2.2 °C 29.8in /  1008.7hPa Calm     93% 0in /  0.0mm 0.00 W/m2
06:30 29.8 °F /  -1.2 °C 28 °F /  -2.2 °C 29.8in /  1008.7hPa Calm     93% 0in /  0.0mm 0.00 W/m2
06:35 29.8 °F /  -1.2 °C 28 °F /  -2.2 °C 29.8in /  1008.4hPa Calm     93% 0in /  0.0mm 0.00 W/m2
06:40 29.8 °F /  -1.2 °C 28 °F /  -2.2 °C 29.8in /  1008.4hPa Calm     93% 0in /  0.0mm 0.00 W/m2
06:45 29.8 °F /  -1.2 °C 28 °F /  -2.2 °C 29.8in /  1008.4hPa Calm     93% 0in /  0.0mm 0.00 W/m2
06:50 29.8 °F /  -1.2 °C 28 °F /  -2.2 °C 29.8in /  1008.4hPa Calm     93% 0in /  0.0mm 0.00 W/m2
06:55 30 °F /  -1.1 °C 28.2 °F /  -2.1 °C 29.8in /  1008.0hPa Calm     93% 0in /  0.0mm 0.00 W/m2
07:00 30 °F /  -1.1 °C 28.2 °F /  -2.1 °C 29.8in /  1008.0hPa Calm   2mph /  3.2km/h 93% 0in /  0.0mm 0.00 W/m2
07:05 30.6 °F /  -0.8 °C 28.8 °F /  -1.8 °C 29.8in /  1008.0hPa Calm   2mph /  3.2km/h 93% 0in /  0.0mm 0.00 W/m2
07:10 30.7 °F /  -0.7 °C 28.9 °F /  -1.7 °C 29.8in /  1008.0hPa East 4mph /  6.4km/h 7mph /  11.3km/h 93% 0in /  0.0mm 0.00 W/m2
07:15 31.6 °F /  -0.2 °C 29.8 °F /  -1.2 °C 29.8in /  1007.7hPa ESE 0.9mph /  1.4km/h 3mph /  4.8km/h 93% 0in /  0.0mm 5.00 W/m2
07:20 32.5 °F /  0.3 °C 30.7 °F /  -0.7 °C 29.8in /  1007.7hPa Calm   7mph /  11.3km/h 93% 0in /  0.0mm 7.00 W/m2
07:25 33.1 °F /  0.6 °C 31.3 °F /  -0.4 °C 29.8in /  1007.7hPa ESE 2.9mph /  4.7km/h 5mph /  8.0km/h 93% 0in /  0.0mm 7.00 W/m2
07:30 33.4 °F /  0.8 °C 31.6 °F /  -0.2 °C 29.8in /  1007.7hPa Calm   3mph /  4.8km/h 93% 0in /  0.0mm 11.00 W/m2
07:35 33.4 °F /  0.8 °C 31.6 °F /  -0.2 °C 29.7in /  1007.3hPa Calm   2mph /  3.2km/h 93% 0in /  0.0mm 14.00 W/m2
07:40 33.4 °F /  0.8 °C 31.6 °F /  -0.2 °C 29.7in /  1007.3hPa East 2mph /  3.2km/h 7mph /  11.3km/h 93% 0in /  0.0mm 18.00 W/m2
07:45 34 °F /  1.1 °C 32.2 °F /  0.1 °C 29.7in /  1007.3hPa Calm   4mph /  6.4km/h 93% 0in /  0.0mm 19.00 W/m2
07:50 34 °F /  1.1 °C 32.2 °F /  0.1 °C 29.7in /  1007.0hPa Calm   2mph /  3.2km/h 93% 0in /  0.0mm 21.00 W/m2
07:55 34.2 °F /  1.2 °C 32.4 °F /  0.2 °C 29.7in /  1007.0hPa Calm   3mph /  4.8km/h 93% 0in /  0.0mm 19.00 W/m2
08:00 34.7 °F /  1.5 °C 32.9 °F /  0.5 °C 29.7in /  1007.0hPa ESE 2mph /  3.2km/h 3mph /  4.8km/h 93% 0in /  0.0mm 25.00 W/m2
08:05 34.9 °F /  1.6 °C 33.1 °F /  0.6 °C 29.7in /  1006.7hPa Calm     93% 0in /  0.0mm 28.00 W/m2
08:10 35.1 °F /  1.7 °C 33.3 °F /  0.7 °C 29.7in /  1006.3hPa Calm   1mph /  1.6km/h 93% 0in /  0.0mm 32.00 W/m2
08:15 35.1 °F /  1.7 °C 33.3 °F /  0.7 °C 29.7in /  1006.3hPa Calm   3mph /  4.8km/h 93% 0in /  0.0mm 30.00 W/m2
08:20 35.2 °F /  1.8 °C 33.4 °F /  0.8 °C 29.7in /  1006.3hPa SE 2mph /  3.2km/h 7mph /  11.3km/h 93% 0in /  0.0mm 28.00 W/m2
08:25 35.4 °F /  1.9 °C 33.6 °F /  0.9 °C 29.7in /  1006.3hPa ESE 2mph /  3.2km/h 4mph /  6.4km/h 93% 0in /  0.0mm 35.00 W/m2
08:30 35.6 °F /  2.0 °C 33.8 °F /  1.0 °C 29.7in /  1006.3hPa Calm   3mph /  4.8km/h 93% 0in /  0.0mm 30.00 W/m2
08:35 35.8 °F /  2.1 °C 34 °F /  1.1 °C 29.7in /  1006.0hPa East 0.9mph /  1.4km/h 5mph /  8.0km/h 93% 0in /  0.0mm 30.00 W/m2
08:40 35.8 °F /  2.1 °C 34 °F /  1.1 °C 29.7in /  1006.0hPa ESE 0.9mph /  1.4km/h 5mph /  8.0km/h 93% 0in /  0.0mm 63.00 W/m2
08:45 35.8 °F /  2.1 °C 34 °F /  1.1 °C 29.7in /  1006.0hPa Calm   2mph /  3.2km/h 93% 0in /  0.0mm 81.00 W/m2
08:50 36 °F /  2.2 °C 34.2 °F /  1.2 °C 29.7in /  1006.0hPa SSE 6mph /  9.7km/h 8mph /  12.9km/h 93% 0in /  0.0mm 70.00 W/m2
08:55 36.1 °F /  2.3 °C 34.3 °F /  1.3 °C 29.7in /  1005.6hPa Calm   2mph /  3.2km/h 93% 0in /  0.0mm 60.00 W/m2
09:00 36.3 °F /  2.4 °C 34.2 °F /  1.2 °C 29.7in /  1005.6hPa ENE 0.9mph /  1.4km/h 6mph /  9.7km/h 92% 0in /  0.0mm 53.00 W/m2
09:05 36.3 °F /  2.4 °C 34.2 °F /  1.2 °C 29.7in /  1005.3hPa Calm   3mph /  4.8km/h 92% 0in /  0.0mm 51.00 W/m2
09:10 36.3 °F /  2.4 °C 34.2 °F /  1.2 °C 29.7in /  1005.6hPa ENE 2mph /  3.2km/h 3mph /  4.8km/h 92% 0in /  0.0mm 56.00 W/m2
09:15 36.7 °F /  2.6 °C 34.5 °F /  1.4 °C 29.7in /  1005.6hPa East 0.9mph /  1.4km/h 2mph /  3.2km/h 92% 0in /  0.0mm 53.00 W/m2
09:20 36.7 °F /  2.6 °C 34.5 °F /  1.4 °C 29.7in /  1005.3hPa East 0.9mph /  1.4km/h 3mph /  4.8km/h 92% 0in /  0.0mm 46.00 W/m2
09:25 36.9 °F /  2.7 °C 34.7 °F /  1.5 °C 29.7in /  1005.0hPa ESE 2.9mph /  4.7km/h 5mph /  8.0km/h 92% 0in /  0.0mm 44.00 W/m2
09:30 37 °F /  2.8 °C 34.9 °F /  1.6 °C 29.7in /  1005.0hPa ESE 4mph /  6.4km/h 5mph /  8.0km/h 92% 0in /  0.0mm 60.00 W/m2
09:35 37 °F /  2.8 °C 34.7 °F /  1.5 °C 29.7in /  1004.6hPa ENE 4.9mph /  7.9km/h 5mph /  8.0km/h 91% 0in /  0.0mm 46.00 W/m2
09:40 37 °F /  2.8 °C 34.7 °F /  1.5 °C 29.7in /  1004.6hPa ESE 2mph /  3.2km/h 9mph /  14.5km/h 91% 0in /  0.0mm 44.00 W/m2
09:45 37.2 °F /  2.9 °C 34.9 °F /  1.6 °C 29.7in /  1004.6hPa ESE 0.9mph /  1.4km/h 3mph /  4.8km/h 91% 0in /  0.0mm 40.00 W/m2
09:50 37.2 °F /  2.9 °C 34.9 °F /  1.6 °C 29.7in /  1004.6hPa East 2.9mph /  4.7km/h 7mph /  11.3km/h 91% 0in /  0.0mm 40.00 W/m2
09:55 37.6 °F /  3.1 °C 35.2 °F /  1.8 °C 29.7in /  1004.3hPa SE 0.9mph /  1.4km/h 6mph /  9.7km/h 91% 0in /  0.0mm 35.00 W/m2
10:00 37.6 °F /  3.1 °C 35.2 °F /  1.8 °C 29.7in /  1004.3hPa SE 4mph /  6.4km/h 9mph /  14.5km/h 91% 0in /  0.0mm 26.00 W/m2
10:05 37.8 °F /  3.2 °C 35.4 °F /  1.9 °C 29.7in /  1004.3hPa ESE 2mph /  3.2km/h 5mph /  8.0km/h 91% 0in /  0.0mm 21.00 W/m2
10:10 37.8 °F /  3.2 °C 35.4 °F /  1.9 °C 29.7in /  1004.3hPa ESE 0.9mph /  1.4km/h 3mph /  4.8km/h 91% 0.01in /  0.3mm 19.00 W/m2
10:15 37.9 °F /  3.3 °C 35.6 °F /  2.0 °C 29.6in /  1003.9hPa ESE 0.9mph /  1.4km/h 6mph /  9.7km/h 91% 0.01in /  0.3mm 18.00 W/m2
10:20 38.1 °F /  3.4 °C 35.8 °F /  2.1 °C 29.6in /  1003.9hPa ESE 2.9mph /  4.7km/h 5mph /  8.0km/h 91% 0.02in /  0.5mm 18.00 W/m2
10:25 38.1 °F /  3.4 °C 35.8 °F /  2.1 °C 29.6in /  1003.9hPa ESE 2mph /  3.2km/h 8mph /  12.9km/h 91% 0.02in /  0.5mm 12.00 W/m2
10:30 38.3 °F /  3.5 °C 36 °F /  2.2 °C 29.6in /  1003.9hPa SE 2mph /  3.2km/h 7mph /  11.3km/h 91% 0.03in /  0.8mm 9.00 W/m2
10:35 38.5 °F /  3.6 °C 36.1 °F /  2.3 °C 29.6in /  1003.9hPa ESE 2mph /  3.2km/h 4mph /  6.4km/h 91% 0.04in /  1.0mm 7.00 W/m2
10:40 38.5 °F /  3.6 °C 36.1 °F /  2.3 °C 29.6in /  1003.6hPa ESE 0.9mph /  1.4km/h 6mph /  9.7km/h 91% 0.06in /  1.5mm 12.00 W/m2
10:45 38.5 °F /  3.6 °C 36.1 °F /  2.3 °C 29.6in /  1003.6hPa Calm   4mph /  6.4km/h 91% 0.07in /  1.8mm 16.00 W/m2
10:50 38.5 °F /  3.6 °C 36.1 °F /  2.3 °C 29.6in /  1003.6hPa SSE 2.9mph /  4.7km/h 6mph /  9.7km/h 91% 0.09in /  2.3mm 19.00 W/m2
10:55 38.7 °F /  3.7 °C 36.5 °F /  2.5 °C 29.6in /  1003.6hPa ESE 0.9mph /  1.4km/h 5mph /  8.0km/h 92% 0.11in /  2.8mm 21.00 W/m2
11:00 38.8 °F /  3.8 °C 36.7 °F /  2.6 °C 29.6in /  1003.3hPa ESE 0.9mph /  1.4km/h 4mph /  6.4km/h 92% 0.12in /  3.0mm 18.00 W/m2
11:05 39.2 °F /  4.0 °C 37 °F /  2.8 °C 29.6in /  1003.3hPa East 4mph /  6.4km/h 10mph /  16.1km/h 92% 0.13in /  3.3mm 14.00 W/m2
11:10 39.4 °F /  4.1 °C 37.2 °F /  2.9 °C 29.6in /  1003.3hPa ESE 2.9mph /  4.7km/h 5mph /  8.0km/h 92% 0.13in /  3.3mm 12.00 W/m2
11:15 39.4 °F /  4.1 °C 37.2 °F /  2.9 °C 29.6in /  1003.3hPa Calm   2mph /  3.2km/h 92% 0.14in /  3.6mm 16.00 W/m2
11:20 39.6 °F /  4.2 °C 37.4 °F /  3.0 °C 29.6in /  1003.3hPa ESE 2.9mph /  4.7km/h 4mph /  6.4km/h 92% 0.15in /  3.8mm 25.00 W/m2
11:25 39.6 °F /  4.2 °C 37.4 °F /  3.0 °C 29.6in /  1002.9hPa ESE 2mph /  3.2km/h 4mph /  6.4km/h 92% 0.15in /  3.8mm 19.00 W/m2
11:30 39.6 °F /  4.2 °C 37.4 °F /  3.0 °C 29.6in /  1002.9hPa Calm   5mph /  8.0km/h 92% 0.15in /  3.8mm 21.00 W/m2
11:35 39.7 °F /  4.3 °C 37.6 °F /  3.1 °C 29.6in /  1002.9hPa SE 4mph /  6.4km/h 9mph /  14.5km/h 92% 0.16in /  4.1mm 26.00 W/m2
11:40 39.7 °F /  4.3 °C 37.6 °F /  3.1 °C 29.6in /  1002.6hPa ESE 0.9mph /  1.4km/h 7mph /  11.3km/h 92% 0.16in /  4.1mm 25.00 W/m2
11:45 39.7 °F /  4.3 °C 37.9 °F /  3.3 °C 29.6in /  1002.6hPa ESE 4.9mph /  7.9km/h 8mph /  12.9km/h 93% 0.15in /  3.8mm 25.00 W/m2
11:50 39.9 °F /  4.4 °C 38.1 °F /  3.4 °C 29.6in /  1002.3hPa ESE 0.9mph /  1.4km/h 4mph /  6.4km/h 93% 0.13in /  3.3mm 33.00 W/m2
11:55 40.1 °F /  4.5 °C 38.3 °F /  3.5 °C 29.6in /  1002.3hPa SE 0.9mph /  1.4km/h 4mph /  6.4km/h 93% 0.12in /  3.0mm 28.00 W/m2
12:00 40.1 °F /  4.5 °C 38.3 °F /  3.5 °C 29.6in /  1001.9hPa ENE 2.9mph /  4.7km/h 5mph /  8.0km/h 93% 0.12in /  3.0mm 35.00 W/m2
12:05 40.5 °F /  4.7 °C 38.7 °F /  3.7 °C 29.6in /  1001.9hPa ESE 2mph /  3.2km/h 5mph /  8.0km/h 93% 0.11in /  2.8mm 35.00 W/m2
12:10 40.5 °F /  4.7 °C 38.7 °F /  3.7 °C 29.6in /  1001.9hPa ESE 2mph /  3.2km/h 7mph /  11.3km/h 93% 0.1in /  2.5mm 32.00 W/m2
12:15 40.6 °F /  4.8 °C 38.8 °F /  3.8 °C 29.6in /  1001.6hPa East 2.9mph /  4.7km/h 6mph /  9.7km/h 93% 0.1in /  2.5mm 30.00 W/m2
12:20 40.6 °F /  4.8 °C 38.8 °F /  3.8 °C 29.6in /  1001.6hPa East 0.9mph /  1.4km/h 8mph /  12.9km/h 93% 0.09in /  2.3mm 28.00 W/m2
12:25 40.6 °F /  4.8 °C 38.8 °F /  3.8 °C 29.6in /  1001.6hPa ESE 2mph /  3.2km/h 10mph /  16.1km/h 93% 0.09in /  2.3mm 26.00 W/m2
12:30 40.8 °F /  4.9 °C 39 °F /  3.9 °C 29.6in /  1001.6hPa ESE 6.9mph /  11.1km/h 7mph /  11.3km/h 93% 0.08in /  2.0mm 23.00 W/m2
12:35 40.8 °F /  4.9 °C 39 °F /  3.9 °C 29.6in /  1001.2hPa ESE 2mph /  3.2km/h 7mph /  11.3km/h 93% 0.08in /  2.0mm 32.00 W/m2
12:40 41 °F /  5.0 °C 39.2 °F /  4.0 °C 29.6in /  1000.9hPa ESE 2.9mph /  4.7km/h 8mph /  12.9km/h 93% 0.07in /  1.8mm 37.00 W/m2
12:45 41.2 °F /  5.1 °C 39.6 °F /  4.2 °C 29.6in /  1000.9hPa East 4mph /  6.4km/h 8mph /  12.9km/h 94% 0.06in /  1.5mm 37.00 W/m2
12:50 41.4 °F /  5.2 °C 39.7 °F /  4.3 °C 29.6in /  1000.6hPa ESE 2.9mph /  4.7km/h 7mph /  11.3km/h 94% 0.07in /  1.8mm 44.00 W/m2
12:55 41.4 °F /  5.2 °C 39.7 °F /  4.3 °C 29.5in /  1000.2hPa SE 4.9mph /  7.9km/h 8mph /  12.9km/h 94% 0.07in /  1.8mm 47.00 W/m2
13:00 41.5 °F /  5.3 °C 39.9 °F /  4.4 °C 29.5in /  1000.2hPa ESE 2mph /  3.2km/h 5mph /  8.0km/h 94% 0.06in /  1.5mm 47.00 W/m2
13:05 41.5 °F /  5.3 °C 39.9 °F /  4.4 °C 29.5in /  1000.2hPa Calm   3mph /  4.8km/h 94% 0.06in /  1.5mm 54.00 W/m2
13:10 41.5 °F /  5.3 °C 39.9 °F /  4.4 °C 29.5in /  1000.2hPa ENE 0.9mph /  1.4km/h 2mph /  3.2km/h 94% 0.06in /  1.5mm 39.00 W/m2
13:15 41.7 °F /  5.4 °C 40.1 °F /  4.5 °C 29.5in /  1000.2hPa East 2mph /  3.2km/h 5mph /  8.0km/h 94% 0.05in /  1.3mm 26.00 W/m2
13:20 41.7 °F /  5.4 °C 40.1 °F /  4.5 °C 29.6in /  1000.6hPa East 2mph /  3.2km/h 2mph /  3.2km/h 94% 0.04in /  1.0mm 25.00 W/m2
13:25 41.9 °F /  5.5 °C 40.3 °F /  4.6 °C 29.6in /  1000.6hPa Calm   3mph /  4.8km/h 94% 0.03in /  0.8mm 49.00 W/m2
13:30 42.1 °F /  5.6 °C 40.5 °F /  4.7 °C 29.6in /  1000.6hPa East 0.9mph /  1.4km/h 4mph /  6.4km/h 94% 0.03in /  0.8mm 54.00 W/m2
13:35 42.1 °F /  5.6 °C 40.5 °F /  4.7 °C 29.5in /  1000.2hPa SE 2mph /  3.2km/h 4mph /  6.4km/h 94% 0.02in /  0.5mm 74.00 W/m2
13:40 42.3 °F /  5.7 °C 40.6 °F /  4.8 °C 29.5in /  1000.2hPa Calm   6mph /  9.7km/h 94% 0.02in /  0.5mm 67.00 W/m2
13:45 42.4 °F /  5.8 °C 40.8 °F /  4.9 °C 29.5in /  999.9hPa ESE 2mph /  3.2km/h 5mph /  8.0km/h 94% 0.02in /  0.5mm 72.00 W/m2
13:50 42.4 °F /  5.8 °C 40.8 °F /  4.9 °C 29.5in /  999.9hPa Calm   4mph /  6.4km/h 94% 0.01in /  0.3mm 84.00 W/m2
13:55 42.4 °F /  5.8 °C 40.8 °F /  4.9 °C 29.5in /  1000.2hPa Calm     94% 0in /  0.0mm 67.00 W/m2
14:00 42.6 °F /  5.9 °C 41 °F /  5.0 °C 29.5in /  1000.2hPa Calm   2mph /  3.2km/h 94% 0in /  0.0mm 67.00 W/m2
14:05 43 °F /  6.1 °C 41.4 °F /  5.2 °C 29.5in /  1000.2hPa Calm   1mph /  1.6km/h 94% 0in /  0.0mm 65.00 W/m2
14:10 43 °F /  6.1 °C 41.4 °F /  5.2 °C 29.5in /  1000.2hPa Calm     94% 0in /  0.0mm 72.00 W/m2
14:15 43.2 °F /  6.2 °C 41.5 °F /  5.3 °C 29.5in /  999.9hPa Calm   2mph /  3.2km/h 94% 0in /  0.0mm 83.00 W/m2
14:20 43.2 °F /  6.2 °C 41.5 °F /  5.3 °C 29.5in /  1000.2hPa Calm     94% 0in /  0.0mm 93.00 W/m2
14:25 43.3 °F /  6.3 °C 41.7 °F /  5.4 °C 29.5in /  1000.2hPa Calm     94% 0in /  0.0mm 151.00 W/m2
14:30 43.7 °F /  6.5 °C 42.1 °F /  5.6 °C 29.5in /  1000.2hPa Calm     94% 0in /  0.0mm 186.00 W/m2
14:35 44.1 °F /  6.7 °C 42.4 °F /  5.8 °C 29.5in /  999.9hPa Calm     94% 0in /  0.0mm 241.00 W/m2
14:40 44.2 °F /  6.8 °C 43 °F /  6.1 °C 29.5in /  1000.2hPa Calm     95% 0in /  0.0mm 251.00 W/m2
14:45 44.6 °F /  7.0 °C 43 °F /  6.1 °C 29.5in /  1000.2hPa Calm     94% 0in /  0.0mm 230.00 W/m2
14:50 44.6 °F /  7.0 °C 43 °F /  6.1 °C 29.5in /  1000.2hPa Calm     94% 0in /  0.0mm 141.00 W/m2
14:55 44.4 °F /  6.9 °C 43.2 °F /  6.2 °C 29.5in /  1000.2hPa Calm   1mph /  1.6km/h 95% 0in /  0.0mm 56.00 W/m2
15:00 44.4 °F /  6.9 °C 43.2 °F /  6.2 °C 29.5in /  1000.2hPa Calm     95% 0in /  0.0mm 67.00 W/m2
15:05 44.4 °F /  6.9 °C 42.8 °F /  6.0 °C 29.5in /  1000.2hPa ESE 2mph /  3.2km/h 2mph /  3.2km/h 94% 0in /  0.0mm 56.00 W/m2
15:10 44.2 °F /  6.8 °C 43 °F /  6.1 °C 29.5in /  1000.2hPa ESE 2.9mph /  4.7km/h 4mph /  6.4km/h 95% 0in /  0.0mm 46.00 W/m2
15:15 44.1 °F /  6.7 °C 42.8 °F /  6.0 °C 29.5in /  1000.2hPa NNW 2.9mph /  4.7km/h 4mph /  6.4km/h 95% 0in /  0.0mm 53.00 W/m2
15:20 44.2 °F /  6.8 °C 43 °F /  6.1 °C 29.5in /  1000.2hPa West 2.9mph /  4.7km/h 8mph /  12.9km/h 95% 0in /  0.0mm 67.00 W/m2
15:25 44.1 °F /  6.7 °C 42.4 °F /  5.8 °C 29.5in /  1000.2hPa West 4.9mph /  7.9km/h 6mph /  9.7km/h 94% 0in /  0.0mm 88.00 W/m2
15:30 43.9 °F /  6.6 °C 42.3 °F /  5.7 °C 29.5in /  1000.2hPa WNW 6mph /  9.7km/h 7mph /  11.3km/h 94% 0in /  0.0mm 84.00 W/m2
15:35 43.9 °F /  6.6 °C 42.3 °F /  5.7 °C 29.5in /  1000.2hPa WNW 2.9mph /  4.7km/h 6mph /  9.7km/h 94% 0in /  0.0mm 79.00 W/m2
15:40 43.9 °F /  6.6 °C 42.3 °F /  5.7 °C 29.5in /  1000.2hPa Calm   3mph /  4.8km/h 94% 0in /  0.0mm 74.00 W/m2
15:45 43.9 °F /  6.6 °C 42.3 °F /  5.7 °C 29.5in /  1000.2hPa WNW 0.9mph /  1.4km/h 6mph /  9.7km/h 94% 0in /  0.0mm 69.00 W/m2
15:50 43.9 °F /  6.6 °C 42.3 °F /  5.7 °C 29.5in /  999.9hPa WNW 0.9mph /  1.4km/h 3mph /  4.8km/h 94% 0in /  0.0mm 40.00 W/m2
15:55 43.9 °F /  6.6 °C 42.3 °F /  5.7 °C 29.5in /  1000.2hPa WNW 2mph /  3.2km/h 3mph /  4.8km/h 94% 0in /  0.0mm 16.00 W/m2
16:00 43.9 °F /  6.6 °C 42.3 °F /  5.7 °C 29.5in /  1000.2hPa NW 4mph /  6.4km/h 7mph /  11.3km/h 94% 0in /  0.0mm 16.00 W/m2
16:05 43.5 °F /  6.4 °C 41.9 °F /  5.5 °C 29.5in /  1000.2hPa NW 0.9mph /  1.4km/h 5mph /  8.0km/h 94% 0in /  0.0mm 14.00 W/m2
16:10 43.5 °F /  6.4 °C 41.9 °F /  5.5 °C 29.5in /  1000.2hPa Calm   3mph /  4.8km/h 94% 0in /  0.0mm 9.00 W/m2
16:15 43.3 °F /  6.3 °C 41.7 °F /  5.4 °C 29.5in /  1000.2hPa NW 2mph /  3.2km/h 5mph /  8.0km/h 94% 0in /  0.0mm 5.00 W/m2
16:20 43.2 °F /  6.2 °C 41.5 °F /  5.3 °C 29.5in /  1000.2hPa Calm   5mph /  8.0km/h 94% 0in /  0.0mm 5.00 W/m2
16:25 43.2 °F /  6.2 °C 41.5 °F /  5.3 °C 29.6in /  1000.6hPa WNW 6.9mph /  11.1km/h 8mph /  12.9km/h 94% 0in /  0.0mm 0.00 W/m2
16:30 43 °F /  6.1 °C 41.4 °F /  5.2 °C 29.6in /  1000.6hPa WNW 4.9mph /  7.9km/h 6mph /  9.7km/h 94% 0in /  0.0mm 0.00 W/m2
16:35 42.8 °F /  6.0 °C 41.2 °F /  5.1 °C 29.6in /  1000.6hPa NW 4mph /  6.4km/h 6mph /  9.7km/h 94% 0in /  0.0mm 0.00 W/m2
16:40 42.8 °F /  6.0 °C 41.2 °F /  5.1 °C 29.6in /  1000.9hPa NW 2mph /  3.2km/h 8mph /  12.9km/h 94% 0in /  0.0mm 0.00 W/m2
16:45 42.6 °F /  5.9 °C 41 °F /  5.0 °C 29.6in /  1000.9hPa NW 8.1mph /  13.0km/h 10mph /  16.1km/h 94% 0in /  0.0mm 0.00 W/m2
16:50 42.6 °F /  5.9 °C 41 °F /  5.0 °C 29.6in /  1000.9hPa NW 6mph /  9.7km/h 8mph /  12.9km/h 94% 0in /  0.0mm 0.00 W/m2
16:55 42.4 °F /  5.8 °C 40.8 °F /  4.9 °C 29.6in /  1000.9hPa WNW 6mph /  9.7km/h 9mph /  14.5km/h 94% 0in /  0.0mm 0.00 W/m2
17:00 42.4 °F /  5.8 °C 40.8 °F /  4.9 °C 29.6in /  1000.9hPa NW 0.9mph /  1.4km/h 5mph /  8.0km/h 94% 0in /  0.0mm 0.00 W/m2
17:05 42.3 °F /  5.7 °C 40.6 °F /  4.8 °C 29.6in /  1001.2hPa NW 0.9mph /  1.4km/h 2mph /  3.2km/h 94% 0in /  0.0mm 0.00 W/m2
17:10 42.3 °F /  5.7 °C 40.6 °F /  4.8 °C 29.6in /  1000.9hPa NW 0.9mph /  1.4km/h 4mph /  6.4km/h 94% 0in /  0.0mm 0.00 W/m2
17:15 42.4 °F /  5.8 °C 40.8 °F /  4.9 °C 29.6in /  1001.2hPa Calm   3mph /  4.8km/h 94% 0in /  0.0mm 0.00 W/m2
17:20 42.4 °F /  5.8 °C 40.8 °F /  4.9 °C 29.6in /  1001.2hPa NW 2.9mph /  4.7km/h 9mph /  14.5km/h 94% 0in /  0.0mm 0.00 W/m2
17:25 42.3 °F /  5.7 °C 40.6 °F /  4.8 °C 29.6in /  1001.2hPa WNW 4mph /  6.4km/h 9mph /  14.5km/h 94% 0in /  0.0mm 0.00 W/m2
17:30 42.3 °F /  5.7 °C 40.6 °F /  4.8 °C 29.6in /  1001.2hPa Calm   7mph /  11.3km/h 94% 0in /  0.0mm 0.00 W/m2
17:35 42.3 °F /  5.7 °C 40.6 °F /  4.8 °C 29.6in /  1001.2hPa NW 2.9mph /  4.7km/h 6mph /  9.7km/h 94% 0in /  0.0mm 0.00 W/m2
17:40 42.3 °F /  5.7 °C 40.6 °F /  4.8 °C 29.6in /  1001.2hPa NW 2mph /  3.2km/h 3mph /  4.8km/h 94% 0in /  0.0mm 0.00 W/m2
17:45 42.3 °F /  5.7 °C 40.6 °F /  4.8 °C 29.6in /  1001.2hPa Calm   3mph /  4.8km/h 94% 0in /  0.0mm 0.00 W/m2
17:50 42.3 °F /  5.7 °C 40.6 °F /  4.8 °C 29.6in /  1001.2hPa Calm   2mph /  3.2km/h 94% 0in /  0.0mm 0.00 W/m2
17:55 42.1 °F /  5.6 °C 40.5 °F /  4.7 °C 29.6in /  1001.2hPa Calm   2mph /  3.2km/h 94% 0in /  0.0mm 0.00 W/m2
18:00 42.1 °F /  5.6 °C 40.5 °F /  4.7 °C 29.6in /  1001.2hPa NW 0.9mph /  1.4km/h 1mph /  1.6km/h 94% 0in /  0.0mm 0.00 W/m2
18:05 41.7 °F /  5.4 °C 40.1 °F /  4.5 °C 29.6in /  1001.2hPa NW 2mph /  3.2km/h 3mph /  4.8km/h 94% 0in /  0.0mm 0.00 W/m2
18:10 41.7 °F /  5.4 °C 40.1 °F /  4.5 °C 29.6in /  1001.2hPa NW 2mph /  3.2km/h 4mph /  6.4km/h 94% 0in /  0.0mm 0.00 W/m2
18:15 41.7 °F /  5.4 °C 40.1 °F /  4.5 °C 29.6in /  1001.2hPa Calm   3mph /  4.8km/h 94% 0in /  0.0mm 0.00 W/m2
18:20 41.7 °F /  5.4 °C 40.1 °F /  4.5 °C 29.6in /  1001.2hPa Calm   4mph /  6.4km/h 94% 0in /  0.0mm 0.00 W/m2
18:25 41.5 °F /  5.3 °C 39.9 °F /  4.4 °C 29.6in /  1001.2hPa Calm   5mph /  8.0km/h 94% 0in /  0.0mm 0.00 W/m2
18:30 41.7 °F /  5.4 °C 40.1 °F /  4.5 °C 29.6in /  1001.2hPa Calm   1mph /  1.6km/h 94% 0in /  0.0mm 0.00 W/m2
18:35 41.7 °F /  5.4 °C 40.1 °F /  4.5 °C 29.6in /  1001.2hPa Calm   1mph /  1.6km/h 94% 0in /  0.0mm 0.00 W/m2
18:40 41.7 °F /  5.4 °C 40.1 °F /  4.5 °C 29.6in /  1001.6hPa NW 0.9mph /  1.4km/h 2mph /  3.2km/h 94% 0in /  0.0mm 0.00 W/m2
18:45 41.7 °F /  5.4 °C 40.1 °F /  4.5 °C 29.6in /  1001.6hPa NW 0.9mph /  1.4km/h 3mph /  4.8km/h 94% 0in /  0.0mm 0.00 W/m2
18:50 41.7 °F /  5.4 °C 40.1 °F /  4.5 °C 29.6in /  1001.6hPa NW 2mph /  3.2km/h 4mph /  6.4km/h 94% 0in /  0.0mm 0.00 W/m2
18:55 41.7 °F /  5.4 °C 40.1 °F /  4.5 °C 29.6in /  1001.2hPa NW 2mph /  3.2km/h 5mph /  8.0km/h 94% 0in /  0.0mm 0.00 W/m2
19:00 41.7 °F /  5.4 °C 40.1 °F /  4.5 °C 29.6in /  1001.2hPa Calm   4mph /  6.4km/h 94% 0in /  0.0mm 0.00 W/m2
19:05 41.7 °F /  5.4 °C 40.1 °F /  4.5 °C 29.6in /  1001.2hPa WNW 2mph /  3.2km/h 4mph /  6.4km/h 94% 0in /  0.0mm 0.00 W/m2
19:10 41.7 °F /  5.4 °C 40.1 °F /  4.5 °C 29.6in /  1001.2hPa WNW 4mph /  6.4km/h 6mph /  9.7km/h 94% 0in /  0.0mm 0.00 W/m2
19:15 41.7 °F /  5.4 °C 40.1 °F /  4.5 °C 29.6in /  1001.2hPa WNW 2.9mph /  4.7km/h 5mph /  8.0km/h 94% 0in /  0.0mm 0.00 W/m2
19:20 41.7 °F /  5.4 °C 40.1 °F /  4.5 °C 29.6in /  1001.2hPa WNW 4mph /  6.4km/h 4mph /  6.4km/h 94% 0in /  0.0mm 0.00 W/m2
19:25 41.7 °F /  5.4 °C 40.1 °F /  4.5 °C 29.6in /  1001.2hPa WNW 4mph /  6.4km/h 5mph /  8.0km/h 94% 0in /  0.0mm 0.00 W/m2
19:30 41.5 °F /  5.3 °C 39.9 °F /  4.4 °C 29.6in /  1001.2hPa WNW 2mph /  3.2km/h 5mph /  8.0km/h 94% 0in /  0.0mm 0.00 W/m2
19:35 41.7 °F /  5.4 °C 40.1 °F /  4.5 °C 29.6in /  1001.6hPa WNW 2.9mph /  4.7km/h 3mph /  4.8km/h 94% 0in /  0.0mm 0.00 W/m2
19:40 41.7 °F /  5.4 °C 40.1 °F /  4.5 °C 29.6in /  1001.6hPa WNW 0.9mph /  1.4km/h 3mph /  4.8km/h 94% 0in /  0.0mm 0.00 W/m2
19:45 41.7 °F /  5.4 °C 40.1 °F /  4.5 °C 29.6in /  1001.6hPa WNW 0.9mph /  1.4km/h 1mph /  1.6km/h 94% 0in /  0.0mm 0.00 W/m2
19:50 41.7 °F /  5.4 °C 40.1 °F /  4.5 °C 29.6in /  1001.6hPa Calm   3mph /  4.8km/h 94% 0in /  0.0mm 0.00 W/m2
19:55 41.7 °F /  5.4 °C 40.1 °F /  4.5 °C 29.6in /  1001.6hPa WNW 2.9mph /  4.7km/h 3mph /  4.8km/h 94% 0in /  0.0mm 0.00 W/m2
20:00 41.7 °F /  5.4 °C 40.1 °F /  4.5 °C 29.6in /  1001.6hPa WNW 2.9mph /  4.7km/h 4mph /  6.4km/h 94% 0in /  0.0mm 0.00 W/m2
20:05 41.7 °F /  5.4 °C 40.1 °F /  4.5 °C 29.6in /  1001.6hPa Calm   4mph /  6.4km/h 94% 0in /  0.0mm 0.00 W/m2
20:10 41.9 °F /  5.5 °C 40.3 °F /  4.6 °C 29.6in /  1001.6hPa WNW 2.9mph /  4.7km/h 4mph /  6.4km/h 94% 0in /  0.0mm 0.00 W/m2
20:15 41.9 °F /  5.5 °C 40.3 °F /  4.6 °C 29.6in /  1001.6hPa WNW 2.9mph /  4.7km/h 3mph /  4.8km/h 94% 0in /  0.0mm 0.00 W/m2
20:20 41.9 °F /  5.5 °C 40.3 °F /  4.6 °C 29.6in /  1001.6hPa WNW 2mph /  3.2km/h 3mph /  4.8km/h 94% 0in /  0.0mm 0.00 W/m2
20:25 41.9 °F /  5.5 °C 40.3 °F /  4.6 °C 29.6in /  1001.6hPa WNW 2mph /  3.2km/h 2mph /  3.2km/h 94% 0in /  0.0mm 0.00 W/m2
20:30 41.9 °F /  5.5 °C 40.3 °F /  4.6 °C 29.6in /  1001.6hPa WNW 2.9mph /  4.7km/h 5mph /  8.0km/h 94% 0in /  0.0mm 0.00 W/m2
20:35 41.9 °F /  5.5 °C 40.3 °F /  4.6 °C 29.6in /  1001.6hPa WNW 2mph /  3.2km/h 4mph /  6.4km/h 94% 0in /  0.0mm 0.00 W/m2
20:40 41.9 °F /  5.5 °C 40.3 °F /  4.6 °C 29.6in /  1001.6hPa WNW 0.9mph /  1.4km/h 2mph /  3.2km/h 94% 0in /  0.0mm 0.00 W/m2
20:45 41.9 °F /  5.5 °C 40.3 °F /  4.6 °C 29.6in /  1001.6hPa WNW 2.9mph /  4.7km/h 3mph /  4.8km/h 94% 0in /  0.0mm 0.00 W/m2
20:50 41.7 °F /  5.4 °C 40.1 °F /  4.5 °C 29.6in /  1001.6hPa WNW 2mph /  3.2km/h 3mph /  4.8km/h 94% 0in /  0.0mm 0.00 W/m2
20:55 41.7 °F /  5.4 °C 40.1 °F /  4.5 °C 29.6in /  1001.6hPa WNW 2mph /  3.2km/h 3mph /  4.8km/h 94% 0in /  0.0mm 0.00 W/m2
21:00 41.5 °F /  5.3 °C 39.9 °F /  4.4 °C 29.6in /  1001.6hPa Calm   3mph /  4.8km/h 94% 0in /  0.0mm 0.00 W/m2
21:05 41.5 °F /  5.3 °C 39.9 °F /  4.4 °C 29.6in /  1001.6hPa NNW 0.9mph /  1.4km/h 5mph /  8.0km/h 94% 0in /  0.0mm 0.00 W/m2
21:10 41.5 °F /  5.3 °C 39.9 °F /  4.4 °C 29.6in /  1001.6hPa NW 2mph /  3.2km/h 7mph /  11.3km/h 94% 0in /  0.0mm 0.00 W/m2
21:15 41.5 °F /  5.3 °C 39.9 °F /  4.4 °C 29.6in /  1001.9hPa NW 2mph /  3.2km/h 4mph /  6.4km/h 94% 0in /  0.0mm 0.00 W/m2
21:20 41.5 °F /  5.3 °C 39.9 °F /  4.4 °C 29.6in /  1001.9hPa Calm   4mph /  6.4km/h 94% 0in /  0.0mm 0.00 W/m2
21:25 41.5 °F /  5.3 °C 39.9 °F /  4.4 °C 29.6in /  1001.9hPa NW 2mph /  3.2km/h 5mph /  8.0km/h 94% 0in /  0.0mm 0.00 W/m2
21:30 41.5 °F /  5.3 °C 39.9 °F /  4.4 °C 29.6in /  1001.9hPa NW 2mph /  3.2km/h 7mph /  11.3km/h 94% 0in /  0.0mm 0.00 W/m2
21:35 41.5 °F /  5.3 °C 39.9 °F /  4.4 °C 29.6in /  1001.9hPa NW 2mph /  3.2km/h 4mph /  6.4km/h 94% 0in /  0.0mm 0.00 W/m2
21:40 41.5 °F /  5.3 °C 39.9 °F /  4.4 °C 29.6in /  1001.9hPa NW 2.9mph /  4.7km/h 5mph /  8.0km/h 94% 0in /  0.0mm 0.00 W/m2
21:45 41.7 °F /  5.4 °C 40.1 °F /  4.5 °C 29.6in /  1001.9hPa Calm   4mph /  6.4km/h 94% 0in /  0.0mm 0.00 W/m2
21:50 41.7 °F /  5.4 °C 40.1 °F /  4.5 °C 29.6in /  1001.9hPa NW 2mph /  3.2km/h 4mph /  6.4km/h 94% 0in /  0.0mm 0.00 W/m2
21:55 41.5 °F /  5.3 °C 39.9 °F /  4.4 °C 29.6in /  1001.9hPa NNW 4.9mph /  7.9km/h 8mph /  12.9km/h 94% 0in /  0.0mm 0.00 W/m2
22:00 41.4 °F /  5.2 °C 39.7 °F /  4.3 °C 29.6in /  1001.9hPa North 4mph /  6.4km/h 5mph /  8.0km/h 94% 0in /  0.0mm 0.00 W/m2
22:05 41.4 °F /  5.2 °C 39.7 °F /  4.3 °C 29.6in /  1001.9hPa NNE 2.9mph /  4.7km/h 7mph /  11.3km/h 94% 0in /  0.0mm 0.00 W/m2
22:10 41.2 °F /  5.1 °C 39.6 °F /  4.2 °C 29.6in /  1001.9hPa NE 4.9mph /  7.9km/h 8mph /  12.9km/h 94% 0in /  0.0mm 0.00 W/m2
22:15 41.2 °F /  5.1 °C 39.6 °F /  4.2 °C 29.6in /  1001.9hPa NW 2.9mph /  4.7km/h 10mph /  16.1km/h 94% 0in /  0.0mm 0.00 W/m2
22:20 41 °F /  5.0 °C 39.4 °F /  4.1 °C 29.6in /  1001.9hPa North 0.9mph /  1.4km/h 7mph /  11.3km/h 94% 0in /  0.0mm 0.00 W/m2
22:25 41 °F /  5.0 °C 39.4 °F /  4.1 °C 29.6in /  1001.9hPa North 2mph /  3.2km/h 7mph /  11.3km/h 94% 0in /  0.0mm 0.00 W/m2
22:30 41 °F /  5.0 °C 39.4 °F /  4.1 °C 29.6in /  1001.9hPa North 2mph /  3.2km/h 8mph /  12.9km/h 94% 0in /  0.0mm 0.00 W/m2
22:35 40.8 °F /  4.9 °C 39.2 °F /  4.0 °C 29.6in /  1001.9hPa NNW 2.9mph /  4.7km/h 9mph /  14.5km/h 94% 0in /  0.0mm 0.00 W/m2
22:40 41 °F /  5.0 °C 39.4 °F /  4.1 °C 29.6in /  1001.9hPa NNW 4.9mph /  7.9km/h 7mph /  11.3km/h 94% 0in /  0.0mm 0.00 W/m2
22:45 41 °F /  5.0 °C 39.4 °F /  4.1 °C 29.6in /  1001.9hPa Calm   6mph /  9.7km/h 94% 0in /  0.0mm 0.00 W/m2
22:52 41.2 °F /  5.1 °C 39.6 °F /  4.2 °C 29.6in /  1002.3hPa Calm   4mph /  6.4km/h 94% 0in /  0.0mm 0.00 W/m2
22:55 41 °F /  5.0 °C 39.4 °F /  4.1 °C 29.6in /  1002.3hPa Calm   4mph /  6.4km/h 94% 0in /  0.0mm 0.00 W/m2
23:00 41.2 °F /  5.1 °C 39.6 °F /  4.2 °C 29.6in /  1002.3hPa North 2mph /  3.2km/h 8mph /  12.9km/h 94% 0in /  0.0mm 0.00 W/m2
23:05 41.4 °F /  5.2 °C 39.7 °F /  4.3 °C 29.6in /  1002.3hPa NW 2mph /  3.2km/h 7mph /  11.3km/h 94% 0in /  0.0mm 0.00 W/m2
23:10 41.4 °F /  5.2 °C 39.7 °F /  4.3 °C 29.6in /  1002.3hPa North 6.9mph /  11.1km/h 9mph /  14.5km/h 94% 0in /  0.0mm 0.00 W/m2
23:15 41.4 °F /  5.2 °C 39.7 °F /  4.3 °C 29.6in /  1002.6hPa NW 6mph /  9.7km/h 7mph /  11.3km/h 94% 0in /  0.0mm 0.00 W/m2
23:20 41.2 °F /  5.1 °C 39.6 °F /  4.2 °C 29.6in /  1002.6hPa NW 2mph /  3.2km/h 8mph /  12.9km/h 94% 0in /  0.0mm 0.00 W/m2
23:25 41.4 °F /  5.2 °C 39.7 °F /  4.3 °C 29.6in /  1002.6hPa NNW 0.9mph /  1.4km/h 9mph /  14.5km/h 94% 0in /  0.0mm 0.00 W/m2
23:30 41.4 °F /  5.2 °C 39.7 °F /  4.3 °C 29.6in /  1002.6hPa Calm   4mph /  6.4km/h 94% 0in /  0.0mm 0.00 W/m2
23:35 41.4 °F /  5.2 °C 39.7 °F /  4.3 °C 29.6in /  1002.6hPa WNW 8.9mph /  14.3km/h 11mph /  17.7km/h 94% 0in /  0.0mm 0.00 W/m2
23:40 41.4 °F /  5.2 °C 39.7 °F /  4.3 °C 29.6in /  1002.6hPa NNW 4mph /  6.4km/h 5mph /  8.0km/h 94% 0in /  0.0mm 0.00 W/m2
23:45 41.4 °F /  5.2 °C 39.7 °F /  4.3 °C 29.6in /  1002.6hPa Calm   6mph /  9.7km/h 94% 0in /  0.0mm 0.00 W/m2
23:50 41.4 °F /  5.2 °C 39.7 °F /  4.3 °C 29.6in /  1002.6hPa NNW 6mph /  9.7km/h 8mph /  12.9km/h 94% 0in /  0.0mm 0.00 W/m2
23:55 41.4 °F /  5.2 °C 39.7 °F /  4.3 °C 29.6in /  1002.6hPa North 4.9mph /  7.9km/h 7mph /  11.3km/h 94% 0in /  0.0mm 0.00 W/m2